sensor_id;sensor_type;location;lat;lon;timestamp;pressure;altitude;pressure_sealevel;temperature;humidity
69460;BME280;57182;55.712;37.612;2022-10-04T00:01:59;98828.50;;;10.72;81.04
69460;BME280;57182;55.712;37.612;2022-10-04T00:07:29;98812.38;;;10.55;81.04
69460;BME280;57182;55.712;37.612;2022-10-04T00:10:14;98808.06;;;10.54;80.88
69460;BME280;57182;55.712;37.612;2022-10-04T00:13:17;98817.97;;;10.61;80.91
69460;BME280;57182;55.712;37.612;2022-10-04T00:15:49;98819.63;;;10.51;81.06
69460;BME280;57182;55.712;37.612;2022-10-04T00:18:36;98799.00;;;10.47;81.21
69460;BME280;57182;55.712;37.612;2022-10-04T00:21:05;98818.69;;;10.52;81.31
69460;BME280;57182;55.712;37.612;2022-10-04T00:29:30;98848.28;;;10.65;81.11
69460;BME280;57182;55.712;37.612;2022-10-04T00:34:50;98842.31;;;10.52;81.41
69460;BME280;57182;55.712;37.612;2022-10-04T00:37:22;98830.84;;;10.53;80.73
69460;BME280;57182;55.712;37.612;2022-10-04T00:40:09;98841.34;;;10.53;80.79
69460;BME280;57182;55.712;37.612;2022-10-04T00:43:06;98845.38;;;10.46;80.43
69460;BME280;57182;55.712;37.612;2022-10-04T00:45:45;98880.47;;;10.56;81.29
69460;BME280;57182;55.712;37.612;2022-10-04T00:51:30;98848.28;;;10.54;81.32
69460;BME280;57182;55.712;37.612;2022-10-04T00:56:49;98820.94;;;10.35;81.11
69460;BME280;57182;55.712;37.612;2022-10-04T00:59:36;98858.75;;;10.54;81.32
69460;BME280;57182;55.712;37.612;2022-10-04T01:05:35;98840.94;;;10.36;81.08
69460;BME280;57182;55.712;37.612;2022-10-04T01:14:00;98820.31;;;10.31;81.11
69460;BME280;57182;55.712;37.612;2022-10-04T01:16:37;98853.97;;;10.48;81.16
69460;BME280;57182;55.712;37.612;2022-10-04T01:22:28;98839.38;;;10.33;81.08
69460;BME280;57182;55.712;37.612;2022-10-04T01:24:56;98835.44;;;10.28;81.70
69460;BME280;57182;55.712;37.612;2022-10-04T01:27:33;98835.44;;;10.28;81.64
69460;BME280;57182;55.712;37.612;2022-10-04T01:30:10;98843.44;;;10.26;81.71
69460;BME280;57182;55.712;37.612;2022-10-04T01:32:41;98863.47;;;10.38;81.93
69460;BME280;57182;55.712;37.612;2022-10-04T01:35:15;98864.56;;;10.36;81.77
69460;BME280;57182;55.712;37.612;2022-10-04T01:37:48;98842.22;;;10.19;82.02
69460;BME280;57182;55.712;37.612;2022-10-04T01:40:16;98862.38;;;10.30;81.78
69460;BME280;57182;55.712;37.612;2022-10-04T01:43:12;98870.84;;;10.33;81.65
69460;BME280;57182;55.712;37.612;2022-10-04T01:45:46;98873.59;;;10.32;81.96
69460;BME280;57182;55.712;37.612;2022-10-04T01:48:21;98841.72;;;10.14;82.09
69460;BME280;57182;55.712;37.612;2022-10-04T01:51:19;98855.25;;;10.08;82.08
69460;BME280;57182;55.712;37.612;2022-10-04T01:54:06;98859.66;;;10.07;81.83
69460;BME280;57182;55.712;37.612;2022-10-04T01:57:04;98861.91;;;10.01;82.24
69460;BME280;57182;55.712;37.612;2022-10-04T01:59:43;98889.44;;;10.06;82.06
69460;BME280;57182;55.712;37.612;2022-10-04T02:02:30;98879.53;;;9.99;82.40
69460;BME280;57182;55.712;37.612;2022-10-04T02:05:01;98888.09;;;10.01;82.65
69460;BME280;57182;55.712;37.612;2022-10-04T02:07:35;98874.59;;;9.94;82.96
69460;BME280;57182;55.712;37.612;2022-10-04T02:10:09;98876.63;;;9.91;82.88
69460;BME280;57182;55.712;37.612;2022-10-04T02:12:44;98891.66;;;10.00;83.01
69460;BME280;57182;55.712;37.612;2022-10-04T02:15:13;98857.78;;;9.86;83.28
69460;BME280;57182;55.712;37.612;2022-10-04T02:17:43;98914.63;;;10.09;83.75
69460;BME280;57182;55.712;37.612;2022-10-04T02:20:14;98889.47;;;9.94;83.29
69460;BME280;57182;55.712;37.612;2022-10-04T02:22:57;98882.09;;;9.88;83.49
69460;BME280;57182;55.712;37.612;2022-10-04T02:25:37;98869.63;;;9.79;83.37
69460;BME280;57182;55.712;37.612;2022-10-04T02:28:10;98886.59;;;9.86;83.92
69460;BME280;57182;55.712;37.612;2022-10-04T02:30:50;98890.16;;;9.85;84.17
69460;BME280;57182;55.712;37.612;2022-10-04T02:33:45;98883.22;;;9.84;83.73
69460;BME280;57182;55.712;37.612;2022-10-04T02:36:23;98894.47;;;9.86;83.86
69460;BME280;57182;55.712;37.612;2022-10-04T02:39:04;98907.31;;;9.89;84.40
69460;BME280;57182;55.712;37.612;2022-10-04T02:41:45;98901.88;;;9.68;84.37
69460;BME280;57182;55.712;37.612;2022-10-04T02:44:20;98899.13;;;9.70;84.68
69460;BME280;57182;55.712;37.612;2022-10-04T02:49:35;98892.44;;;9.53;85.09
69460;BME280;57182;55.712;37.612;2022-10-04T02:52:07;98903.97;;;9.63;84.82
69460;BME280;57182;55.712;37.612;2022-10-04T02:55:01;98890.47;;;9.57;85.17
69460;BME280;57182;55.712;37.612;2022-10-04T02:57:32;98883.16;;;9.49;85.14
69460;BME280;57182;55.712;37.612;2022-10-04T03:00:13;98913.44;;;9.77;85.15
69460;BME280;57182;55.712;37.612;2022-10-04T03:06:55;98920.50;;;9.64;85.32
69460;BME280;57182;55.712;37.612;2022-10-04T03:09:24;98895.00;;;9.42;85.45
69460;BME280;57182;55.712;37.612;2022-10-04T03:12:25;98926.50;;;9.66;85.80
69460;BME280;57182;55.712;37.612;2022-10-04T03:14:53;98922.31;;;9.63;85.80
69460;BME280;57182;55.712;37.612;2022-10-04T03:17:22;98897.41;;;9.45;85.38
69460;BME280;57182;55.712;37.612;2022-10-04T03:19:51;98915.09;;;9.54;85.65
69460;BME280;57182;55.712;37.612;2022-10-04T03:22:49;98918.53;;;9.67;85.50
69460;BME280;57182;55.712;37.612;2022-10-04T03:25:19;98894.88;;;9.43;85.43
69460;BME280;57182;55.712;37.612;2022-10-04T03:27:49;98893.63;;;9.49;85.71
69460;BME280;57182;55.712;37.612;2022-10-04T03:30:24;98902.94;;;9.53;85.63
69460;BME280;57182;55.712;37.612;2022-10-04T03:33:21;98921.25;;;9.66;85.77
69460;BME280;57182;55.712;37.612;2022-10-04T03:35:53;98936.13;;;9.65;85.91
69460;BME280;57182;55.712;37.612;2022-10-04T03:38:23;98917.84;;;9.53;86.01
69460;BME280;57182;55.712;37.612;2022-10-04T03:40:58;98913.72;;;9.48;86.07
69460;BME280;57182;55.712;37.612;2022-10-04T03:43:29;98926.50;;;9.53;85.90
69460;BME280;57182;55.712;37.612;2022-10-04T03:45:59;98925.19;;;9.47;85.98
69460;BME280;57182;55.712;37.612;2022-10-04T03:48:34;98931.97;;;9.63;85.92
69460;BME280;57182;55.712;37.612;2022-10-04T03:51:05;98921.50;;;9.50;86.22
69460;BME280;57182;55.712;37.612;2022-10-04T03:53:39;98918.56;;;9.42;86.14
69460;BME280;57182;55.712;37.612;2022-10-04T03:56:25;98915.63;;;9.46;85.86
69460;BME280;57182;55.712;37.612;2022-10-04T03:58:56;98903.28;;;9.36;86.01
69460;BME280;57182;55.712;37.612;2022-10-04T04:04:55;98934.47;;;9.52;85.81
69460;BME280;57182;55.712;37.612;2022-10-04T04:07:57;98916.56;;;9.45;86.39
69460;BME280;57182;55.712;37.612;2022-10-04T04:10:29;98900.78;;;9.34;86.07
69460;BME280;57182;55.712;37.612;2022-10-04T04:15:38;98971.78;;;9.68;85.89
69460;BME280;57182;55.712;37.612;2022-10-04T04:18:22;98967.47;;;9.67;85.72
69460;BME280;57182;55.712;37.612;2022-10-04T04:20:52;98918.47;;;9.43;85.84
69460;BME280;57182;55.712;37.612;2022-10-04T04:23:28;98958.16;;;9.63;85.74
69460;BME280;57182;55.712;37.612;2022-10-04T04:26:16;98935.28;;;9.65;85.69
69460;BME280;57182;55.712;37.612;2022-10-04T04:28:49;98934.03;;;9.70;86.14
69460;BME280;57182;55.712;37.612;2022-10-04T04:31:19;98964.38;;;9.85;85.51
69460;BME280;57182;55.712;37.612;2022-10-04T04:34:02;98938.22;;;9.73;85.33
69460;BME280;57182;55.712;37.612;2022-10-04T04:36:38;98963.34;;;9.88;85.39
69460;BME280;57182;55.712;37.612;2022-10-04T04:41:56;98954.25;;;9.81;85.31
69460;BME280;57182;55.712;37.612;2022-10-04T04:44:25;98959.56;;;9.79;85.54
69460;BME280;57182;55.712;37.612;2022-10-04T04:46:54;98942.56;;;9.85;85.34
69460;BME280;57182;55.712;37.612;2022-10-04T04:49:23;98968.88;;;9.96;84.82
69460;BME280;57182;55.712;37.612;2022-10-04T04:51:53;98947.16;;;9.94;85.01
69460;BME280;57182;55.712;37.612;2022-10-04T04:54:24;98960.38;;;9.92;84.96
69460;BME280;57182;55.712;37.612;2022-10-04T04:56:58;98955.00;;;10.06;84.79
69460;BME280;57182;55.712;37.612;2022-10-04T04:59:27;98970.81;;;10.18;84.57
69460;BME280;57182;55.712;37.612;2022-10-04T05:01:56;98949.97;;;10.03;84.23
69460;BME280;57182;55.712;37.612;2022-10-04T05:04:24;98976.06;;;10.18;84.41
69460;BME280;57182;55.712;37.612;2022-10-04T05:07:11;98964.28;;;10.23;83.62
69460;BME280;57182;55.712;37.612;2022-10-04T05:09:42;98954.63;;;10.24;84.01
69460;BME280;57182;55.712;37.612;2022-10-04T05:12:38;98989.47;;;10.49;82.88
69460;BME280;57182;55.712;37.612;2022-10-04T05:15:08;98988.75;;;10.47;83.82
69460;BME280;57182;55.712;37.612;2022-10-04T05:17:39;99015.84;;;10.35;83.59
69460;BME280;57182;55.712;37.612;2022-10-04T05:20:09;98973.38;;;10.30;83.91
69460;BME280;57182;55.712;37.612;2022-10-04T05:26:31;98984.81;;;10.53;82.50
69460;BME280;57182;55.712;37.612;2022-10-04T05:29:14;99001.53;;;10.52;82.25
69460;BME280;57182;55.712;37.612;2022-10-04T05:32:21;98992.75;;;10.64;82.48
69460;BME280;57182;55.712;37.612;2022-10-04T05:34:50;99017.28;;;10.63;83.10
69460;BME280;57182;55.712;37.612;2022-10-04T05:40:15;98963.16;;;10.38;82.08
69460;BME280;57182;55.712;37.612;2022-10-04T05:42:57;98992.09;;;10.49;82.35
69460;BME280;57182;55.712;37.612;2022-10-04T05:45:27;99009.75;;;10.58;82.38
69460;BME280;57182;55.712;37.612;2022-10-04T05:47:57;98996.84;;;10.44;82.68
69460;BME280;57182;55.712;37.612;2022-10-04T05:50:37;99015.63;;;10.62;82.36
69460;BME280;57182;55.712;37.612;2022-10-04T05:53:31;99013.00;;;10.62;81.66
69460;BME280;57182;55.712;37.612;2022-10-04T05:56:11;99016.47;;;10.62;82.18
69460;BME280;57182;55.712;37.612;2022-10-04T06:02:00;98988.13;;;10.67;81.64
69460;BME280;57182;55.712;37.612;2022-10-04T06:07:48;99020.97;;;10.84;80.86
69460;BME280;57182;55.712;37.612;2022-10-04T06:10:43;99036.13;;;10.81;80.74
69460;BME280;57182;55.712;37.612;2022-10-04T06:16:37;99027.78;;;10.87;80.78
69460;BME280;57182;55.712;37.612;2022-10-04T06:22:18;99031.53;;;10.71;80.90
69460;BME280;57182;55.712;37.612;2022-10-04T06:24:55;99025.34;;;10.72;80.67
69460;BME280;57182;55.712;37.612;2022-10-04T06:27:32;99022.59;;;10.74;80.35
69460;BME280;57182;55.712;37.612;2022-10-04T06:30:05;99035.94;;;10.95;80.53
69460;BME280;57182;55.712;37.612;2022-10-04T06:38:44;99032.66;;;11.15;79.60
69460;BME280;57182;55.712;37.612;2022-10-04T06:41:47;99036.13;;;11.15;79.13
69460;BME280;57182;55.712;37.612;2022-10-04T06:46:52;99020.97;;;11.19;79.15
69460;BME280;57182;55.712;37.612;2022-10-04T06:55:35;99001.75;;;11.18;77.19
69460;BME280;57182;55.712;37.612;2022-10-04T07:03:44;99031.44;;;11.65;76.54
69460;BME280;57182;55.712;37.612;2022-10-04T07:06:40;99026.41;;;11.62;74.95
69460;BME280;57182;55.712;37.612;2022-10-04T07:09:18;99017.31;;;11.66;75.19
69460;BME280;57182;55.712;37.612;2022-10-04T07:12:04;99023.41;;;11.66;73.71
69460;BME280;57182;55.712;37.612;2022-10-04T07:14:44;99038.28;;;11.78;73.67
69460;BME280;57182;55.712;37.612;2022-10-04T07:17:20;99030.28;;;11.80;73.15
69460;BME280;57182;55.712;37.612;2022-10-04T07:19:51;99012.66;;;11.58;73.25
69460;BME280;57182;55.712;37.612;2022-10-04T07:22:27;99039.56;;;11.73;72.64
69460;BME280;57182;55.712;37.612;2022-10-04T07:27:32;99042.47;;;12.03;72.77
69460;BME280;57182;55.712;37.612;2022-10-04T07:30:12;99046.66;;;12.06;71.64
69460;BME280;57182;55.712;37.612;2022-10-04T07:32:46;99054.88;;;12.12;71.70
69460;BME280;57182;55.712;37.612;2022-10-04T07:35:29;99064.59;;;12.01;70.84
69460;BME280;57182;55.712;37.612;2022-10-04T07:38:27;99041.53;;;11.93;70.17
69460;BME280;57182;55.712;37.612;2022-10-04T07:41:20;99038.75;;;11.94;71.05
69460;BME280;57182;55.712;37.612;2022-10-04T07:43:57;99021.16;;;12.17;70.35
69460;BME280;57182;55.712;37.612;2022-10-04T07:49:03;99024.09;;;13.51;68.38
69460;BME280;57182;55.712;37.612;2022-10-04T07:51:42;99008.25;;;14.11;63.13
69460;BME280;57182;55.712;37.612;2022-10-04T07:59:47;99022.00;;;17.04;57.38
69460;BME280;57182;55.712;37.612;2022-10-04T08:13:41;99008.22;;;17.95;50.50
69460;BME280;57182;55.712;37.612;2022-10-04T08:16:37;99011.03;;;17.68;50.62
69460;BME280;57182;55.712;37.612;2022-10-04T08:25:03;99017.56;;;17.30;52.12
69460;BME280;57182;55.712;37.612;2022-10-04T08:31:14;99045.53;;;14.86;57.72
69460;BME280;57182;55.712;37.612;2022-10-04T08:34:11;99035.88;;;14.37;59.00
69460;BME280;57182;55.712;37.612;2022-10-04T08:57:22;99026.06;;;13.28;61.96
69460;BME280;57182;55.712;37.612;2022-10-04T09:06:37;99021.88;;;13.76;61.78
69460;BME280;57182;55.712;37.612;2022-10-04T09:12:16;99050.41;;;13.92;60.95
69460;BME280;57182;55.712;37.612;2022-10-04T09:38:33;98980.44;;;17.82;48.95
69460;BME280;57182;55.712;37.612;2022-10-04T09:40:56;99029.19;;;16.94;50.02
69460;BME280;57182;55.712;37.612;2022-10-04T09:46:53;99018.50;;;15.40;54.49
69460;BME280;57182;55.712;37.612;2022-10-04T09:55:49;99001.84;;;14.54;57.59
69460;BME280;57182;55.712;37.612;2022-10-04T10:01:09;99001.75;;;14.15;58.40
69460;BME280;57182;55.712;37.612;2022-10-04T10:09:23;99022.44;;;14.10;58.87
69460;BME280;57182;55.712;37.612;2022-10-04T10:18:43;99023.47;;;13.98;61.61
69460;BME280;57182;55.712;37.612;2022-10-04T11:05:39;99170.38;;;9.23;87.57
69460;BME280;57182;55.712;37.612;2022-10-04T11:27:33;99227.47;;;8.63;89.24
69460;BME280;57182;55.712;37.612;2022-10-04T11:30:26;99221.69;;;8.58;90.47
69460;BME280;57182;55.712;37.612;2022-10-04T11:41:58;99223.81;;;8.52;88.22
69460;BME280;57182;55.712;37.612;2022-10-04T11:44:56;99239.72;;;8.63;89.22
69460;BME280;57182;55.712;37.612;2022-10-04T11:47:40;99231.59;;;8.53;89.97
69460;BME280;57182;55.712;37.612;2022-10-04T11:50:36;99232.50;;;8.66;88.67
69460;BME280;57182;55.712;37.612;2022-10-04T11:53:27;99237.66;;;8.68;89.93
69460;BME280;57182;55.712;37.612;2022-10-04T11:56:41;99247.63;;;8.75;87.68
69460;BME280;57182;55.712;37.612;2022-10-04T12:07:23;99244.47;;;9.65;86.77
69460;BME280;57182;55.712;37.612;2022-10-04T12:29:28;99257.28;;;9.69;81.88
69460;BME280;57182;55.712;37.612;2022-10-04T12:32:09;99237.44;;;9.53;81.19
69460;BME280;57182;55.712;37.612;2022-10-04T12:43:43;99273.84;;;9.70;81.98
69460;BME280;57182;55.712;37.612;2022-10-04T12:55:13;99288.78;;;9.94;80.67
69460;BME280;57182;55.712;37.612;2022-10-04T12:57:51;99289.75;;;9.93;80.63
69460;BME280;57182;55.712;37.612;2022-10-04T13:00:24;99299.78;;;9.87;80.53
69460;BME280;57182;55.712;37.612;2022-10-04T13:05:35;99300.28;;;9.79;79.44
69460;BME280;57182;55.712;37.612;2022-10-04T13:08:21;99296.03;;;9.64;79.59
69460;BME280;57182;55.712;37.612;2022-10-04T13:11:26;99313.50;;;9.78;78.89
69460;BME280;57182;55.712;37.612;2022-10-04T13:17:05;99302.06;;;9.79;78.05
69460;BME280;57182;55.712;37.612;2022-10-04T13:28:26;99305.47;;;9.93;78.87
69460;BME280;57182;55.712;37.612;2022-10-04T13:31:06;99302.00;;;9.93;78.90
69460;BME280;57182;55.712;37.612;2022-10-04T13:33:59;99309.66;;;9.96;78.66
69460;BME280;57182;55.712;37.612;2022-10-04T13:36:50;99309.75;;;9.94;79.62
69460;BME280;57182;55.712;37.612;2022-10-04T13:39:27;99307.56;;;9.88;79.74
69460;BME280;57182;55.712;37.612;2022-10-04T13:45:12;99317.50;;;9.83;79.56
69460;BME280;57182;55.712;37.612;2022-10-04T13:59:46;99296.41;;;9.58;79.29
69460;BME280;57182;55.712;37.612;2022-10-04T14:02:47;99300.47;;;9.76;80.03
69460;BME280;57182;55.712;37.612;2022-10-04T14:08:35;99330.69;;;9.82;79.94
69460;BME280;57182;55.712;37.612;2022-10-04T14:54:08;99305.66;;;9.64;77.46
69460;BME280;57182;55.712;37.612;2022-10-04T14:57:00;99335.00;;;9.83;77.22
69460;BME280;57182;55.712;37.612;2022-10-04T15:02:35;99343.25;;;9.77;77.52
69460;BME280;57182;55.712;37.612;2022-10-04T15:05:28;99324.56;;;9.69;78.44
69460;BME280;57182;55.712;37.612;2022-10-04T15:11:00;99347.91;;;9.86;78.78
69460;BME280;57182;55.712;37.612;2022-10-04T15:13:47;99318.03;;;9.62;78.71
69460;BME280;57182;55.712;37.612;2022-10-04T15:32:38;99359.22;;;9.86;79.44
69460;BME280;57182;55.712;37.612;2022-10-04T15:35:36;99332.97;;;9.74;79.59
69460;BME280;57182;55.712;37.612;2022-10-04T15:38:16;99358.19;;;9.89;79.48
69460;BME280;57182;55.712;37.612;2022-10-04T15:43:43;99348.50;;;9.77;79.69
69460;BME280;57182;55.712;37.612;2022-10-04T15:49:31;99369.81;;;9.85;79.94
69460;BME280;57182;55.712;37.612;2022-10-04T15:52:33;99367.19;;;9.85;80.10
69460;BME280;57182;55.712;37.612;2022-10-04T16:08:11;99374.22;;;9.84;79.73
69460;BME280;57182;55.712;37.612;2022-10-04T16:43:54;99347.03;;;9.73;78.52
69460;BME280;57182;55.712;37.612;2022-10-04T16:46:29;99353.72;;;9.77;78.70
69460;BME280;57182;55.712;37.612;2022-10-04T16:49:00;99341.97;;;9.70;78.45
69460;BME280;57182;55.712;37.612;2022-10-04T16:54:29;99373.72;;;9.92;78.35
69460;BME280;57182;55.712;37.612;2022-10-04T17:24:33;99372.97;;;9.90;78.11
69460;BME280;57182;55.712;37.612;2022-10-04T17:30:21;99363.28;;;9.78;77.12
69460;BME280;57182;55.712;37.612;2022-10-04T17:35:56;99382.00;;;9.86;77.03
69460;BME280;57182;55.712;37.612;2022-10-04T17:38:50;99355.81;;;9.72;76.64
69460;BME280;57182;55.712;37.612;2022-10-04T17:47:38;99386.47;;;9.84;77.14
69460;BME280;57182;55.712;37.612;2022-10-04T17:50:48;99367.53;;;9.66;76.93
69460;BME280;57182;55.712;37.612;2022-10-04T17:53:41;99356.06;;;9.55;76.87
69460;BME280;57182;55.712;37.612;2022-10-04T17:56:35;99339.06;;;9.47;76.71
69460;BME280;57182;55.712;37.612;2022-10-04T17:59:12;99382.75;;;9.74;77.33
69460;BME280;57182;55.712;37.612;2022-10-04T18:01:53;99346.97;;;9.60;77.03
69460;BME280;57182;55.712;37.612;2022-10-04T18:04:33;99349.66;;;9.59;77.10
69460;BME280;57182;55.712;37.612;2022-10-04T18:09:43;99386.53;;;9.70;77.43
69460;BME280;57182;55.712;37.612;2022-10-04T18:12:43;99368.19;;;9.70;77.43
69460;BME280;57182;55.712;37.612;2022-10-04T18:15:41;99376.28;;;9.53;77.80
69460;BME280;57182;55.712;37.612;2022-10-04T18:18:16;99374.47;;;9.67;78.50
69460;BME280;57182;55.712;37.612;2022-10-04T18:21:01;99373.81;;;9.64;78.33
69460;BME280;57182;55.712;37.612;2022-10-04T18:23:36;99346.06;;;9.33;78.50
69460;BME280;57182;55.712;37.612;2022-10-04T18:26:16;99382.25;;;9.55;78.84
69460;BME280;57182;55.712;37.612;2022-10-04T18:28:45;99382.63;;;9.48;78.54
69460;BME280;57182;55.712;37.612;2022-10-04T18:31:27;99359.28;;;9.31;78.28
69460;BME280;57182;55.712;37.612;2022-10-04T18:34:00;99386.69;;;9.40;78.26
69460;BME280;57182;55.712;37.612;2022-10-04T18:36:29;99338.06;;;9.08;78.81
69460;BME280;57182;55.712;37.612;2022-10-04T18:39:18;99362.31;;;9.11;78.49
69460;BME280;57182;55.712;37.612;2022-10-04T18:44:58;99359.38;;;9.16;78.63
69460;BME280;57182;55.712;37.612;2022-10-04T18:47:33;99392.97;;;9.37;78.91
69460;BME280;57182;55.712;37.612;2022-10-04T18:50:21;99372.56;;;9.28;78.44
69460;BME280;57182;55.712;37.612;2022-10-04T18:53:12;99378.38;;;9.19;78.94
69460;BME280;57182;55.712;37.612;2022-10-04T18:56:03;99378.94;;;9.10;79.22
69460;BME280;57182;55.712;37.612;2022-10-04T19:10:23;99399.41;;;9.18;79.17
69460;BME280;57182;55.712;37.612;2022-10-04T19:15:43;99399.81;;;9.12;79.64
69460;BME280;57182;55.712;37.612;2022-10-04T19:18:34;99408.69;;;9.09;80.14
69460;BME280;57182;55.712;37.612;2022-10-04T19:21:29;99400.63;;;8.98;79.76
69460;BME280;57182;55.712;37.612;2022-10-04T19:26:40;99396.16;;;8.86;80.29
69460;BME280;57182;55.712;37.612;2022-10-04T19:29:42;99404.44;;;8.93;79.82
69460;BME280;57182;55.712;37.612;2022-10-04T19:38:16;99399.00;;;8.81;80.40
69460;BME280;57182;55.712;37.612;2022-10-04T19:43:50;99399.75;;;8.69;82.04
69460;BME280;57182;55.712;37.612;2022-10-04T19:48:51;99382.44;;;8.53;81.61
69460;BME280;57182;55.712;37.612;2022-10-04T19:51:35;99378.72;;;8.57;81.62
69460;BME280;57182;55.712;37.612;2022-10-04T19:54:12;99365.25;;;8.49;81.48
69460;BME280;57182;55.712;37.612;2022-10-04T19:56:47;99376.84;;;8.59;81.26
69460;BME280;57182;55.712;37.612;2022-10-04T20:01:45;99380.97;;;8.63;81.87
69460;BME280;57182;55.712;37.612;2022-10-04T20:04:14;99362.56;;;8.50;82.18
69460;BME280;57182;55.712;37.612;2022-10-04T20:07:06;99394.25;;;8.74;81.54
69460;BME280;57182;55.712;37.612;2022-10-04T20:13:02;99381.16;;;8.60;83.01
69460;BME280;57182;55.712;37.612;2022-10-04T20:18:01;99405.16;;;8.66;82.72
69460;BME280;57182;55.712;37.612;2022-10-04T20:23:06;99384.09;;;8.40;82.74
69460;BME280;57182;55.712;37.612;2022-10-04T20:31:00;99402.97;;;8.45;82.93
69460;BME280;57182;55.712;37.612;2022-10-04T20:36:02;99396.88;;;8.30;82.51
69460;BME280;57182;55.712;37.612;2022-10-04T20:38:44;99404.06;;;8.41;83.14
69460;BME280;57182;55.712;37.612;2022-10-04T20:44:05;99376.53;;;8.19;82.55
69460;BME280;57182;55.712;37.612;2022-10-04T20:46:36;99373.41;;;8.13;82.63
69460;BME280;57182;55.712;37.612;2022-10-04T20:49:14;99385.31;;;8.18;82.59
69460;BME280;57182;55.712;37.612;2022-10-04T20:51:46;99380.81;;;8.20;81.97
69460;BME280;57182;55.712;37.612;2022-10-04T20:54:18;99383.13;;;8.11;82.56
69460;BME280;57182;55.712;37.612;2022-10-04T20:56:47;99376.81;;;8.15;82.94
69460;BME280;57182;55.712;37.612;2022-10-04T20:59:16;99393.16;;;8.18;82.65
69460;BME280;57182;55.712;37.612;2022-10-04T21:02:14;99383.06;;;8.12;82.94
69460;BME280;57182;55.712;37.612;2022-10-04T21:04:42;99392.69;;;8.26;83.02
69460;BME280;57182;55.712;37.612;2022-10-04T21:07:24;99364.16;;;8.07;82.58
69460;BME280;57182;55.712;37.612;2022-10-04T21:09:52;99393.50;;;8.12;83.26
69460;BME280;57182;55.712;37.612;2022-10-04T21:12:38;99390.19;;;8.24;83.60
69460;BME280;57182;55.712;37.612;2022-10-04T21:17:43;99372.53;;;7.98;83.06
69460;BME280;57182;55.712;37.612;2022-10-04T21:20:40;99378.59;;;8.14;82.14
69460;BME280;57182;55.712;37.612;2022-10-04T21:26:22;99383.19;;;8.25;82.34
69460;BME280;57182;55.712;37.612;2022-10-04T21:28:54;99390.09;;;8.26;82.78
69460;BME280;57182;55.712;37.612;2022-10-04T21:31:24;99388.50;;;8.23;82.75
69460;BME280;57182;55.712;37.612;2022-10-04T21:33:52;99386.47;;;8.29;83.15
69460;BME280;57182;55.712;37.612;2022-10-04T21:36:19;99359.88;;;8.06;82.67
69460;BME280;57182;55.712;37.612;2022-10-04T21:38:46;99376.38;;;8.22;83.16
69460;BME280;57182;55.712;37.612;2022-10-04T21:41:13;99372.66;;;8.27;82.68
69460;BME280;57182;55.712;37.612;2022-10-04T21:44:05;99379.97;;;8.36;82.39
69460;BME280;57182;55.712;37.612;2022-10-04T21:46:33;99377.63;;;8.31;82.58
69460;BME280;57182;55.712;37.612;2022-10-04T21:49:01;99375.84;;;8.32;82.77
69460;BME280;57182;55.712;37.612;2022-10-04T21:51:28;99370.94;;;8.25;82.69
69460;BME280;57182;55.712;37.612;2022-10-04T21:54:05;99381.50;;;8.24;82.21
69460;BME280;57182;55.712;37.612;2022-10-04T21:56:33;99375.78;;;8.17;83.07
69460;BME280;57182;55.712;37.612;2022-10-04T21:59:00;99371.22;;;8.21;82.41
69460;BME280;57182;55.712;37.612;2022-10-04T22:01:27;99377.97;;;8.25;82.29
69460;BME280;57182;55.712;37.612;2022-10-04T22:03:55;99343.44;;;8.04;82.57
69460;BME280;57182;55.712;37.612;2022-10-04T22:06:22;99372.16;;;8.20;82.67
69460;BME280;57182;55.712;37.612;2022-10-04T22:08:49;99376.28;;;8.24;82.33
69460;BME280;57182;55.712;37.612;2022-10-04T22:11:16;99378.28;;;8.35;82.59
69460;BME280;57182;55.712;37.612;2022-10-04T22:13:44;99369.50;;;8.36;82.03
69460;BME280;57182;55.712;37.612;2022-10-04T22:16:12;99390.19;;;8.40;82.28
69460;BME280;57182;55.712;37.612;2022-10-04T22:18:39;99354.50;;;8.23;82.93
69460;BME280;57182;55.712;37.612;2022-10-04T22:21:07;99382.69;;;8.34;82.67
69460;BME280;57182;55.712;37.612;2022-10-04T22:23:40;99371.53;;;8.31;82.57
69460;BME280;57182;55.712;37.612;2022-10-04T22:26:16;99380.53;;;8.41;83.04
69460;BME280;57182;55.712;37.612;2022-10-04T22:28:49;99378.78;;;8.41;82.69
69460;BME280;57182;55.712;37.612;2022-10-04T22:31:19;99359.41;;;8.30;82.23
69460;BME280;57182;55.712;37.612;2022-10-04T22:33:48;99347.13;;;8.16;82.57
69460;BME280;57182;55.712;37.612;2022-10-04T22:36:22;99372.13;;;8.36;82.77
69460;BME280;57182;55.712;37.612;2022-10-04T22:39:03;99378.28;;;8.35;82.27
69460;BME280;57182;55.712;37.612;2022-10-04T22:41:37;99382.22;;;8.28;82.86
69460;BME280;57182;55.712;37.612;2022-10-04T22:44:15;99386.13;;;8.35;82.44
69460;BME280;57182;55.712;37.612;2022-10-04T22:46:44;99370.78;;;8.29;83.25
69460;BME280;57182;55.712;37.612;2022-10-04T22:49:15;99380.97;;;8.33;83.16
69460;BME280;57182;55.712;37.612;2022-10-04T22:51:46;99373.34;;;8.30;82.81
69460;BME280;57182;55.712;37.612;2022-10-04T22:54:24;99368.13;;;8.30;82.79
69460;BME280;57182;55.712;37.612;2022-10-04T22:56:52;99376.44;;;8.21;83.13
69460;BME280;57182;55.712;37.612;2022-10-04T22:59:23;99360.69;;;8.22;83.10
69460;BME280;57182;55.712;37.612;2022-10-04T23:01:52;99374.38;;;8.28;82.96
69460;BME280;57182;55.712;37.612;2022-10-04T23:04:24;99379.97;;;8.36;82.57
69460;BME280;57182;55.712;37.612;2022-10-04T23:06:52;99377.19;;;8.39;83.08
69460;BME280;57182;55.712;37.612;2022-10-04T23:09:19;99379.78;;;8.39;82.55
69460;BME280;57182;55.712;37.612;2022-10-04T23:11:47;99377.28;;;8.37;82.94
69460;BME280;57182;55.712;37.612;2022-10-04T23:14:14;99377.34;;;8.36;83.20
69460;BME280;57182;55.712;37.612;2022-10-04T23:16:42;99364.66;;;8.30;83.28
69460;BME280;57182;55.712;37.612;2022-10-04T23:19:12;99358.56;;;8.29;82.61
69460;BME280;57182;55.712;37.612;2022-10-04T23:21:45;99369.72;;;8.33;83.00